PDT,Max TemperatureF,Mean TemperatureF,Min TemperatureF,Max Dew PointF,MeanDew PointF,Min DewpointF,Max Humidity, Mean Humidity, Min Humidity, Max Sea Level PressureIn, Mean Sea Level PressureIn, Min Sea Level PressureIn, Max VisibilityMiles, Mean VisibilityMiles, Min VisibilityMiles, Max Wind SpeedMPH, Mean Wind SpeedMPH, Max Gust SpeedMPH,PrecipitationIn, CloudCover, Events, WindDirDegrees
2013-3-1,71,55,38,52,44,37,100,76,51,30.44,30.37,30.22,10,6,0,8,2,10,0.00,0,Fog,223
2013-3-2,71,58,44,54,49,43,93,71,49,30.22,30.12,30.04,10,10,10,13,4,17,0.00,1,,156
2013-3-3,67,54,41,51,46,39,89,69,48,30.09,30.05,30.00,10,10,7,18,8,22,0.00,4,,234
2013-3-4,58,51,43,48,44,40,96,81,66,30.15,30.09,30.04,10,9,7,15,6,18,0.00,5,,275
2013-3-5,57,45,32,47,39,30,100,81,61,30.07,29.98,29.80,10,8,0,25,11,33,0.02,5,Fog-Rain,223
2013-3-6,58,47,35,48,42,34,92,72,51,30.04,29.96,29.81,10,10,4,28,10,35,0.08,4,Rain,229
2013-3-7,57,46,34,40,37,33,92,70,47,29.99,29.91,29.85,10,10,10,10,5,23,0.00,5,,33
2013-3-8,63,49,34,45,39,32,92,69,46,30.02,29.88,29.83,10,10,10,24,7,28,0.00,0,,264
2013-3-9,70,51,32,46,39,32,92,65,37,30.29,30.21,30.05,10,10,10,17,5,21,0.00,0,,193
2013-3-10,68,51,33,46,40,33,92,63,34,30.33,30.27,30.22,10,10,10,12,4,26,0.00,0,,186
2013-3-11,70,52,34,49,41,34,92,65,37,30.24,30.18,30.08,10,10,10,12,4,14,0.00,0,,199
2013-3-12,73,56,38,54,46,39,100,75,49,30.18,30.12,30.05,10,5,0,10,3,12,0.00,5,Fog,239
2013-3-13,79,59,39,56,45,38,100,72,43,30.17,30.12,30.04,10,6,0,12,3,16,0.00,1,Fog,127
2013-3-14,69,56,43,55,50,44,100,76,52,30.14,30.10,30.07,10,10,5,14,5,17,0.00,0,,183
2013-3-15,70,55,40,53,47,39,100,83,65,30.12,30.07,30.01,10,9,1,16,4,21,0.00,0,,182
2013-3-16,71,57,42,53,47,42,93,70,47,30.10,30.05,29.98,10,7,0,18,7,22,0.00,3,Fog,237
2013-3-17,68,53,38,46,41,36,86,62,37,30.14,30.07,30.02,10,10,10,15,4,17,0.00,0,,237
2013-3-18,65,51,36,48,43,37,100,74,48,30.10,30.06,30.00,10,10,9,16,5,21,0.00,1,,223
2013-3-19,66,54,42,49,45,41,96,72,48,30.11,30.08,30.05,10,10,9,15,4,18,T,6,Rain,263
2013-3-20,58,54,49,55,51,44,96,90,83,30.13,30.09,30.05,10,8,2,20,7,23,0.05,8,Rain,230
2013-3-21,65,50,35,48,42,34,93,73,52,30.13,30.08,29.99,10,9,1,17,5,33,0.00,1,,238
2013-3-22,70,53,36,41,32,20,92,54,15,30.09,30.05,30.00,10,10,9,39,5,30,0.00,0,,355
2013-3-23,68,51,34,45,36,28,83,56,29,30.12,30.07,30.02,10,10,10,13,3,14,0.00,0,,194
2013-3-24,69,53,36,48,43,36,100,73,45,30.08,30.02,29.95,10,10,3,14,5,16,0.00,0,,201
2013-3-25,60,48,36,47,41,36,100,79,57,30.03,29.98,29.93,10,6,0,21,8,37,0.00,2,Fog,254
2013-3-26,65,54,43,50,44,40,92,74,56,30.00,29.96,29.91,10,10,10,20,7,21,0.00,2,,247
2013-3-27,63,53,42,53,47,40,92,82,72,30.02,29.97,29.94,10,10,9,17,6,21,0.00,6,,258
2013-3-28,68,59,49,53,50,48,89,72,55,30.09,30.04,29.99,10,10,10,10,3,16,0.00,6,,327
2013-3-29,78,61,43,54,49,43,100,68,36,30.10,30.05,29.99,10,6,0,16,4,21,0.00,2,Fog,145
2013-3-30,66,60,53,55,52,49,93,77,60,30.07,30.02,29.97,10,10,8,17,8,23,0.03,5,Rain-Thunderstorm,236
2013-3-31,65,59,53,56,53,50,93,80,67,30.08,30.04,29.99,10,10,2,18,6,22,0.19,7,Rain,226